createdAt,value
2019-05-29T00:01:56.135Z,2.20
2019-05-29T00:04:26.268Z,2.20
2019-05-29T00:06:56.144Z,2.17
2019-05-29T00:09:26.787Z,2.40
2019-05-29T00:11:56.862Z,2.50
2019-05-29T00:14:27.797Z,2.13
2019-05-29T00:16:57.961Z,2.13
2019-05-29T00:19:28.299Z,2.20
2019-05-29T00:21:58.420Z,2.40
2019-05-29T00:24:28.831Z,2.13
2019-05-29T00:26:59.189Z,2.47
2019-05-29T00:29:29.053Z,2.37
2019-05-29T00:31:58.970Z,2.43
2019-05-29T00:34:29.140Z,2.20
2019-05-29T00:36:59.296Z,3.50
2019-05-29T00:39:29.785Z,2.20
2019-05-29T00:42:00.412Z,2.23
2019-05-29T00:44:34.435Z,2.40
2019-05-29T00:47:02.259Z,2.47
2019-05-29T00:49:32.520Z,2.37
2019-05-29T00:52:02.720Z,2.27
2019-05-29T00:54:33.157Z,2.37
2019-05-29T00:57:03.222Z,2.40
2019-05-29T00:59:33.354Z,2.30
2019-05-29T01:02:03.595Z,2.77
2019-05-29T01:04:34.203Z,2.60
2019-05-29T01:07:04.245Z,2.70
2019-05-29T01:09:34.457Z,3.13
2019-05-29T01:12:04.841Z,2.43
2019-05-29T01:14:49.262Z,2.37
2019-05-29T01:17:06.659Z,2.20
2019-05-29T01:19:36.639Z,2.23
2019-05-29T01:22:06.640Z,2.50
2019-05-29T01:24:36.737Z,2.47
2019-05-29T01:27:07.073Z,2.20
2019-05-29T01:29:37.226Z,2.63
2019-05-29T01:32:07.277Z,2.93
2019-05-29T01:34:38.177Z,2.27
2019-05-29T01:37:08.296Z,2.83
2019-05-29T01:39:38.474Z,2.40
2019-05-29T01:42:09.129Z,2.60
2019-05-29T01:44:39.243Z,2.40
2019-05-29T01:47:09.429Z,2.40
2019-05-29T01:49:40.046Z,2.40
2019-05-29T01:52:10.108Z,2.87
2019-05-29T01:54:40.266Z,2.37
2019-05-29T01:57:10.629Z,2.23
2019-05-29T01:59:40.661Z,2.60
2019-05-29T02:02:11.142Z,2.53
2019-05-29T02:04:41.977Z,2.40
2019-05-29T02:07:12.186Z,2.70
2019-05-29T02:09:42.362Z,2.60
2019-05-29T02:12:13.045Z,2.60
2019-05-29T02:14:42.951Z,2.90
2019-05-29T02:17:12.974Z,2.70
2019-05-29T02:19:43.422Z,2.70
2019-05-29T02:22:14.211Z,2.13
2019-05-29T02:24:44.364Z,2.50
2019-05-29T02:27:14.410Z,2.27
2019-05-29T02:29:44.318Z,2.43
2019-05-29T02:32:14.515Z,2.70
2019-05-29T02:34:44.889Z,2.40
2019-05-29T02:37:15.286Z,2.37
2019-05-29T02:39:45.267Z,2.40
2019-05-29T02:42:15.569Z,2.47
2019-05-29T02:44:45.967Z,2.20
2019-05-29T02:47:16.326Z,2.70
2019-05-29T02:49:46.374Z,2.33
2019-05-29T02:52:17.041Z,2.30
2019-05-29T02:54:47.187Z,2.50
2019-05-29T02:57:17.278Z,2.37
2019-05-29T02:59:47.499Z,2.53
2019-05-29T03:02:17.671Z,2.10
2019-05-29T03:04:48.114Z,2.30
2019-05-29T03:07:19.132Z,2.30
2019-05-29T03:09:49.258Z,2.60
2019-05-29T03:12:19.444Z,2.33
2019-05-29T03:14:49.541Z,2.50
2019-05-29T03:17:19.771Z,2.47
2019-05-29T03:19:49.970Z,2.03
2019-05-29T03:22:21.585Z,2.60
2019-05-29T03:24:51.789Z,2.80
2019-05-29T03:27:22.020Z,2.40
2019-05-29T03:29:52.162Z,2.60
2019-05-29T03:32:22.799Z,2.60
2019-05-29T03:34:53.206Z,4.23
2019-05-29T03:37:23.467Z,2.77
2019-05-29T03:39:53.730Z,3.40
2019-05-29T03:42:24.031Z,2.70
2019-05-29T03:44:54.050Z,2.50
2019-05-29T03:47:26.773Z,2.50
2019-05-29T03:49:56.881Z,2.67
2019-05-29T03:52:28.337Z,2.93
2019-05-29T03:54:58.717Z,2.60
2019-05-29T03:57:29.778Z,2.47
2019-05-29T04:00:00.930Z,3.27
2019-05-29T04:02:31.301Z,3.57
2019-05-29T04:05:03.106Z,2.80
2019-05-29T04:07:35.650Z,2.50
2019-05-29T04:10:07.070Z,2.50
2019-05-29T04:12:38.101Z,2.57
2019-05-29T04:15:09.571Z,3.00
2019-05-29T04:17:41.896Z,3.00
2019-05-29T04:20:12.689Z,2.80
2019-05-29T04:22:45.349Z,3.10
2019-05-29T04:25:15.848Z,3.13
2019-05-29T04:27:48.658Z,2.87
2019-05-29T04:30:18.902Z,3.13
2019-05-29T04:32:48.874Z,3.20
2019-05-29T04:35:19.426Z,3.00
2019-05-29T04:37:49.923Z,3.10
2019-05-29T04:40:19.889Z,2.80
2019-05-29T04:42:50.108Z,3.30
2019-05-29T04:45:20.163Z,3.17
2019-05-29T04:47:50.212Z,3.63
2019-05-29T04:50:20.688Z,3.53
2019-05-29T04:52:51.197Z,3.50
2019-05-29T04:55:21.365Z,4.13
2019-05-29T04:57:51.535Z,4.23
2019-05-29T05:00:21.688Z,3.60
2019-05-29T05:02:55.043Z,4.00
2019-05-29T05:05:25.811Z,4.57
2019-05-29T05:07:57.313Z,4.57
2019-05-29T05:10:59.356Z,4.73
2019-05-29T05:13:33.463Z,5.00
2019-05-29T05:16:04.377Z,5.13
2019-05-29T05:18:36.267Z,5.13
2019-05-29T05:21:06.577Z,5.23
2019-05-29T05:23:38.128Z,6.00
2019-05-29T05:26:08.345Z,6.43
2019-05-29T05:28:38.902Z,6.50
2019-05-29T05:31:08.997Z,6.70
2019-05-29T05:33:40.681Z,6.80
2019-05-29T05:36:11.155Z,7.47
2019-05-29T05:38:41.699Z,6.53
2019-05-29T05:41:11.942Z,6.97
2019-05-29T05:43:42.399Z,6.60
2019-05-29T05:46:12.735Z,6.67
2019-05-29T05:48:42.540Z,6.33
2019-05-29T05:51:13.572Z,6.50
2019-05-29T05:53:44.163Z,5.90
2019-05-29T05:56:14.261Z,6.30
2019-05-29T05:58:44.081Z,5.50
2019-05-29T06:01:14.540Z,6.20
2019-05-29T06:03:45.101Z,6.80
2019-05-29T06:06:15.367Z,5.57
2019-05-29T06:08:45.877Z,5.50
2019-05-29T06:11:16.053Z,5.60
2019-05-29T06:16:11.188Z,5.00
2019-05-29T06:18:41.041Z,4.83
2019-05-29T06:21:11.661Z,4.50
2019-05-29T06:23:43.180Z,4.20
2019-05-29T06:26:14.131Z,3.70
2019-05-29T06:28:44.721Z,3.37
2019-05-29T06:31:15.640Z,2.50
2019-05-29T06:33:45.793Z,2.03
2019-05-29T06:36:16.092Z,2.07
2019-05-29T06:38:46.444Z,1.90
2019-05-29T06:41:16.829Z,1.97
2019-05-29T06:43:46.858Z,2.20
2019-05-29T06:46:17.001Z,1.70
2019-05-29T06:48:58.551Z,1.93
2019-05-29T06:51:18.936Z,1.80
2019-05-29T06:53:51.348Z,1.30
2019-05-29T06:56:21.749Z,1.70
2019-05-29T06:58:51.890Z,1.50
2019-05-29T07:01:22.109Z,1.50
2019-05-29T07:04:07.908Z,1.70
2019-05-29T07:06:24.728Z,1.53
2019-05-29T07:08:55.254Z,1.40
2019-05-29T07:11:25.463Z,1.57
2019-05-29T07:13:56.863Z,1.50
2019-05-29T07:16:43.089Z,1.57
2019-05-29T07:21:32.088Z,1.40
2019-05-29T07:24:03.193Z,1.73
2019-05-29T07:26:33.630Z,1.80
2019-05-29T07:29:08.439Z,1.30
2019-05-29T07:31:36.883Z,1.40
2019-05-29T07:34:08.298Z,1.30
2019-05-29T07:36:39.925Z,1.90
2019-05-29T07:39:10.607Z,1.70
2019-05-29T07:41:41.682Z,1.53
2019-05-29T07:44:12.137Z,1.63
2019-05-29T07:46:42.419Z,1.90
2019-05-29T07:49:12.626Z,1.53
2019-05-29T07:51:43.698Z,1.50
2019-05-29T07:54:15.553Z,1.83
2019-05-29T07:56:46.596Z,1.60
2019-05-29T07:59:16.848Z,1.10
2019-05-29T08:01:47.248Z,1.67
2019-05-29T08:04:17.950Z,1.70
2019-05-29T08:06:53.575Z,1.63
2019-05-29T08:09:19.732Z,1.47
2019-05-29T08:11:50.284Z,1.60
2019-05-29T08:14:20.701Z,1.50
2019-05-29T08:16:50.947Z,1.70
2019-05-29T08:19:21.384Z,1.60
2019-05-29T08:21:51.332Z,1.50
2019-05-29T08:24:24.703Z,1.80
2019-05-29T08:26:53.454Z,1.47
2019-05-29T08:29:23.636Z,1.57
2019-05-29T08:31:53.687Z,1.20
2019-05-29T08:34:24.047Z,1.60
2019-05-29T08:37:05.910Z,1.73
2019-05-29T08:39:36.112Z,1.43
2019-05-29T08:42:21.262Z,1.53
2019-05-29T08:44:29.948Z,1.77
2019-05-29T08:47:09.496Z,1.80
2019-05-29T08:49:31.767Z,1.50
2019-05-29T08:52:11.575Z,1.50
2019-05-29T08:54:35.161Z,1.67
2019-05-29T08:57:07.748Z,1.33
2019-05-29T08:59:37.963Z,1.63
2019-05-29T09:02:07.978Z,1.67
2019-05-29T09:04:38.004Z,1.67
2019-05-29T09:07:08.346Z,1.60
2019-05-29T09:09:39.283Z,1.50
2019-05-29T09:12:10.225Z,1.40
2019-05-29T09:14:40.385Z,1.70
2019-05-29T09:17:10.471Z,1.90
2019-05-29T09:19:40.489Z,1.30
2019-05-29T09:22:10.701Z,2.10
2019-05-29T09:24:41.037Z,1.80
2019-05-29T09:27:12.736Z,1.30
2019-05-29T09:29:43.471Z,1.80
2019-05-29T09:32:15.394Z,1.53
2019-05-29T09:34:47.999Z,1.60
2019-05-29T09:37:19.027Z,1.30
2019-05-29T09:39:49.519Z,2.30
2019-05-29T09:42:20.830Z,2.47
2019-05-29T09:44:51.596Z,1.67
2019-05-29T09:47:22.232Z,2.30
2019-05-29T09:49:54.012Z,1.90
2019-05-29T09:52:24.016Z,1.97
2019-05-29T09:54:54.659Z,1.90
2019-05-29T09:57:24.813Z,2.13
2019-05-29T09:59:56.394Z,1.40
2019-05-29T10:02:26.759Z,1.60
2019-05-29T10:04:58.021Z,1.47
2019-05-29T10:07:29.066Z,1.40
2019-05-29T10:10:00.553Z,1.47
2019-05-29T10:12:31.571Z,1.50
2019-05-29T10:15:02.661Z,1.40
2019-05-29T10:17:32.980Z,1.40
2019-05-29T10:20:05.025Z,1.90
2019-05-29T10:22:45.138Z,1.80
2019-05-29T10:25:16.079Z,1.70
2019-05-29T10:27:46.679Z,1.70
2019-05-29T10:30:18.692Z,1.60
2019-05-29T10:32:48.567Z,1.80
2019-05-29T10:35:18.959Z,1.73
2019-05-29T10:40:25.496Z,1.50
2019-05-29T10:42:55.326Z,1.50
2019-05-29T10:45:25.518Z,1.50
2019-05-29T10:47:56.054Z,1.70
2019-05-29T10:50:25.940Z,1.70
2019-05-29T10:52:56.462Z,1.70
2019-05-29T10:55:26.992Z,1.60
2019-05-29T10:57:57.138Z,1.40
2019-05-29T11:00:27.258Z,1.80
2019-05-29T11:02:58.145Z,1.80
2019-05-29T11:05:28.749Z,1.50
2019-05-29T11:07:58.874Z,1.90
2019-05-29T11:10:29.113Z,1.50
2019-05-29T11:12:59.230Z,1.80
2019-05-29T11:15:29.253Z,1.83
2019-05-29T11:17:59.454Z,1.60
2019-05-29T11:20:29.854Z,1.63
2019-05-29T11:23:00.030Z,1.77
2019-05-29T11:25:30.571Z,1.90
2019-05-29T11:28:00.615Z,1.50
2019-05-29T11:30:31.303Z,2.00
2019-05-29T11:33:02.275Z,1.60
2019-05-29T11:35:37.545Z,1.67
2019-05-29T11:38:08.651Z,1.63
2019-05-29T11:40:38.817Z,1.30
2019-05-29T11:43:08.978Z,1.63
2019-05-29T11:45:39.514Z,1.50
2019-05-29T11:48:10.063Z,1.47
2019-05-29T11:50:40.145Z,1.73
2019-05-29T11:53:10.764Z,1.80
2019-05-29T11:55:40.994Z,1.97
2019-05-29T11:58:11.028Z,1.73
2019-05-29T12:00:42.121Z,1.77
2019-05-29T12:03:19.573Z,1.60
2019-05-29T12:05:51.038Z,1.70
2019-05-29T12:08:21.185Z,2.00
2019-05-29T12:10:51.351Z,1.80
2019-05-29T12:13:22.037Z,1.80
2019-05-29T12:15:53.522Z,1.53
2019-05-29T12:18:24.810Z,1.60
2019-05-29T12:20:56.171Z,1.50
2019-05-29T12:23:27.263Z,1.60
2019-05-29T12:26:16.422Z,1.50
2019-05-29T12:28:29.459Z,1.57
2019-05-29T12:31:01.364Z,1.57
2019-05-29T12:33:33.431Z,1.50
2019-05-29T12:36:04.396Z,1.50
2019-05-29T12:38:34.315Z,1.40
2019-05-29T12:41:04.789Z,1.37
2019-05-29T12:43:34.981Z,1.50
2019-05-29T12:46:05.578Z,1.40
2019-05-29T12:48:46.695Z,1.50
2019-05-29T12:51:19.627Z,1.80
2019-05-29T12:53:50.399Z,1.80
2019-05-29T12:56:20.233Z,1.40
2019-05-29T12:58:51.939Z,1.40
2019-05-29T13:01:23.526Z,1.40
2019-05-29T13:03:56.522Z,1.40
2019-05-29T13:06:35.274Z,1.50
2019-05-29T13:09:07.662Z,1.43
2019-05-29T13:11:38.363Z,1.33
2019-05-29T13:14:09.090Z,1.60
2019-05-29T13:16:41.312Z,1.50
2019-05-29T13:19:11.543Z,1.43
2019-05-29T13:21:41.769Z,1.27
2019-05-29T13:24:11.935Z,1.27
2019-05-29T13:26:42.448Z,1.40
2019-05-29T13:29:13.184Z,1.40
2019-05-29T13:31:45.431Z,1.50
2019-05-29T13:34:15.576Z,1.47
2019-05-29T13:36:47.217Z,1.30
2019-05-29T13:39:17.855Z,1.23
2019-05-29T13:41:47.882Z,1.50
2019-05-29T13:44:17.721Z,1.20
2019-05-29T13:46:47.968Z,1.20
2019-05-29T13:49:18.227Z,1.40
2019-05-29T13:51:48.644Z,1.37
2019-05-29T13:54:20.659Z,1.10
2019-05-29T13:56:51.136Z,1.40
2019-05-29T13:59:22.550Z,1.60
2019-05-29T14:01:52.881Z,1.30
2019-05-29T14:04:23.369Z,1.40
2019-05-29T14:06:53.403Z,1.30
2019-05-29T14:09:23.721Z,1.50
2019-05-29T14:11:54.059Z,1.20
2019-05-29T14:14:24.555Z,1.30
2019-05-29T14:16:54.745Z,1.60
2019-05-29T14:19:24.838Z,1.40
2019-05-29T14:21:55.040Z,1.40
2019-05-29T14:24:29.488Z,1.30
2019-05-29T14:26:58.202Z,1.30
2019-05-29T14:29:28.393Z,1.20
2019-05-29T14:31:58.688Z,1.60
2019-05-29T14:34:28.686Z,1.17
2019-05-29T14:36:59.242Z,1.33
2019-05-29T14:39:30.411Z,1.27
2019-05-29T14:42:01.611Z,1.13
2019-05-29T14:44:32.088Z,1.17
2019-05-29T14:47:02.428Z,1.10
2019-05-29T14:49:32.596Z,1.10
2019-05-29T14:52:02.838Z,1.30
2019-05-29T14:54:41.626Z,1.10
2019-05-29T14:57:19.232Z,1.00
2019-05-29T14:59:37.487Z,1.13
2019-05-29T15:02:16.841Z,1.10
2019-05-29T15:04:39.217Z,1.10
2019-05-29T15:07:09.871Z,1.00
2019-05-29T15:09:40.486Z,1.20
2019-05-29T15:12:10.393Z,0.97
2019-05-29T15:14:40.563Z,1.00
2019-05-29T15:17:10.949Z,1.00
2019-05-29T15:19:41.150Z,1.20
2019-05-29T15:22:11.618Z,1.20
2019-05-29T15:24:59.773Z,1.23
2019-05-29T15:27:16.214Z,1.10
2019-05-29T15:29:46.553Z,1.20
2019-05-29T15:32:16.761Z,1.23
2019-05-29T15:34:46.701Z,0.97
2019-05-29T15:37:18.608Z,1.10
2019-05-29T15:39:48.842Z,1.30
2019-05-29T15:42:18.899Z,1.40
2019-05-29T15:44:48.821Z,1.23
2019-05-29T15:47:26.558Z,1.30
2019-05-29T15:49:56.678Z,1.30
2019-05-29T15:52:26.783Z,1.00
2019-05-29T15:55:21.393Z,1.20
2019-05-29T15:57:37.986Z,1.23
2019-05-29T16:00:09.324Z,1.40
2019-05-29T16:02:39.548Z,1.50
2019-05-29T16:05:11.156Z,1.70
2019-05-29T16:07:41.406Z,1.40
2019-05-29T16:10:16.255Z,1.60
2019-05-29T16:12:45.634Z,1.67
2019-05-29T16:15:17.547Z,1.43
2019-05-29T16:17:47.926Z,1.73
2019-05-29T16:20:18.658Z,1.57
2019-05-29T16:22:49.017Z,1.40
2019-05-29T16:25:37.261Z,1.73
2019-05-29T16:27:52.120Z,1.50
2019-05-29T16:30:22.641Z,1.77
2019-05-29T16:32:53.740Z,1.30
2019-05-29T16:35:24.234Z,1.50
2019-05-29T16:37:54.498Z,1.47
2019-05-29T16:40:25.086Z,1.20
2019-05-29T16:42:55.544Z,1.67
2019-05-29T16:45:25.733Z,1.50
2019-05-29T16:47:56.355Z,1.30
2019-05-29T16:50:26.457Z,1.70
2019-05-29T16:52:56.569Z,1.60
2019-05-29T16:55:27.019Z,1.30
2019-05-29T16:57:58.028Z,1.63
2019-05-29T17:00:28.475Z,1.43
2019-05-29T17:03:08.607Z,1.20
2019-05-29T17:05:38.838Z,1.43
2019-05-29T17:08:10.069Z,1.30
2019-05-29T17:10:40.214Z,1.67
2019-05-29T17:13:20.549Z,1.30
2019-05-29T17:16:00.757Z,1.43
2019-05-29T17:18:35.307Z,1.40
2019-05-29T17:21:06.124Z,1.30
2019-05-29T17:23:36.654Z,1.40
2019-05-29T17:26:16.648Z,1.20
2019-05-29T17:29:11.951Z,1.30
2019-05-29T17:31:44.730Z,1.67
2019-05-29T17:34:15.304Z,1.80
2019-05-29T17:36:45.333Z,1.70
2019-05-29T17:39:15.473Z,1.57
2019-05-29T17:41:47.089Z,1.43
2019-05-29T17:44:17.444Z,1.80
2019-05-29T17:46:47.577Z,2.20
2019-05-29T17:49:17.821Z,2.40
2019-05-29T17:51:48.667Z,1.80
2019-05-29T17:54:26.059Z,1.80
2019-05-29T17:56:56.554Z,1.90
2019-05-29T17:59:26.869Z,1.90
2019-05-29T18:02:06.079Z,2.00
2019-05-29T18:04:36.724Z,2.20
2019-05-29T18:07:06.775Z,2.17
2019-05-29T18:09:37.319Z,2.10
2019-05-29T18:12:07.564Z,1.70
2019-05-29T18:14:37.608Z,1.87
2019-05-29T18:17:08.288Z,1.70
2019-05-29T18:19:38.537Z,1.80
2019-05-29T18:22:08.502Z,1.83
2019-05-29T18:24:38.835Z,1.83
2019-05-29T18:27:09.073Z,2.10
2019-05-29T18:29:39.130Z,1.77
2019-05-29T18:32:09.844Z,2.30
2019-05-29T18:34:40.256Z,2.00
2019-05-29T18:37:10.687Z,1.87
2019-05-29T18:39:44.600Z,1.60
2019-05-29T18:42:16.739Z,1.70
2019-05-29T18:44:47.536Z,1.70
2019-05-29T18:47:19.039Z,2.20
2019-05-29T18:49:49.236Z,1.63
2019-05-29T18:52:21.836Z,1.93
2019-05-29T18:54:52.289Z,1.40
2019-05-29T18:57:34.412Z,1.67
2019-05-29T19:00:14.577Z,1.93
2019-05-29T19:02:54.615Z,2.03
2019-05-29T19:05:25.572Z,1.70
2019-05-29T19:07:56.995Z,1.60
2019-05-29T19:10:27.820Z,2.00
2019-05-29T19:12:58.288Z,1.73
2019-05-29T19:15:28.554Z,1.73
2019-05-29T19:17:59.319Z,1.80
2019-05-29T19:20:30.547Z,1.40
2019-05-29T19:23:00.758Z,1.67
2019-05-29T19:25:30.930Z,1.50
2019-05-29T19:28:01.685Z,1.50
2019-05-29T19:30:33.091Z,1.60
2019-05-29T19:33:03.355Z,1.77
2019-05-29T19:35:33.916Z,1.60
2019-05-29T19:38:03.895Z,1.67
2019-05-29T19:40:34.674Z,1.77
2019-05-29T19:43:05.123Z,1.83
2019-05-29T19:45:35.367Z,1.83
2019-05-29T19:48:05.668Z,1.83
2019-05-29T19:50:35.961Z,2.40
2019-05-29T19:53:06.088Z,2.00
2019-05-29T19:55:38.250Z,2.30
2019-05-29T19:58:08.636Z,1.70
2019-05-29T20:00:42.596Z,2.10
2019-05-29T20:03:20.091Z,2.60
2019-05-29T20:05:49.720Z,2.10
2019-05-29T20:08:20.279Z,2.47
2019-05-29T20:10:50.769Z,2.50
2019-05-29T20:13:21.006Z,2.80
2019-05-29T20:15:51.257Z,2.17
2019-05-29T20:18:21.277Z,2.10
2019-05-29T20:20:51.265Z,2.37
2019-05-29T20:23:21.780Z,2.47
2019-05-29T20:25:52.328Z,2.30
2019-05-29T20:28:22.981Z,2.20
2019-05-29T20:30:53.505Z,2.60
2019-05-29T20:33:23.724Z,2.17
2019-05-29T20:35:53.838Z,2.50
2019-05-29T20:38:24.263Z,2.20
2019-05-29T20:40:54.697Z,2.80
2019-05-29T20:43:25.278Z,2.80
2019-05-29T20:45:55.341Z,2.57
2019-05-29T20:48:25.437Z,2.80
2019-05-29T20:50:55.819Z,2.30
2019-05-29T20:53:26.229Z,2.50
2019-05-29T20:55:56.305Z,2.40
2019-05-29T20:58:26.549Z,2.40
2019-05-29T21:00:57.197Z,2.57
2019-05-29T21:03:27.792Z,2.40
2019-05-29T21:05:58.339Z,2.20
2019-05-29T21:08:28.913Z,2.53
2019-05-29T21:10:59.013Z,2.20
2019-05-29T21:13:29.092Z,2.10
2019-05-29T21:15:59.741Z,2.40
2019-05-29T21:18:29.683Z,2.10
2019-05-29T21:20:59.868Z,2.10
2019-05-29T21:23:30.391Z,2.43
2019-05-29T21:26:00.474Z,2.27
2019-05-29T21:28:39.633Z,2.60
2019-05-29T21:31:02.998Z,1.90
2019-05-29T21:33:33.950Z,2.30
2019-05-29T21:36:04.085Z,1.63
2019-05-29T21:38:36.131Z,2.50
2019-05-29T21:41:06.294Z,1.73
2019-05-29T21:43:36.504Z,2.33
2019-05-29T21:46:07.129Z,2.13
2019-05-29T21:48:38.918Z,2.20
2019-05-29T21:51:09.061Z,1.93
2019-05-29T21:53:39.289Z,2.23
2019-05-29T21:56:09.682Z,2.57
2019-05-29T21:58:57.285Z,2.10
2019-05-29T22:01:12.392Z,1.87
2019-05-29T22:03:42.536Z,2.37
2019-05-29T22:06:13.418Z,2.10
2019-05-29T22:08:44.784Z,2.23
2019-05-29T22:11:15.431Z,2.00
2019-05-29T22:13:45.751Z,1.93
2019-05-29T22:16:16.364Z,1.80
2019-05-29T22:18:46.565Z,2.13
2019-05-29T22:21:16.781Z,2.00
2019-05-29T22:23:47.122Z,1.80
2019-05-29T22:26:17.576Z,1.90
2019-05-29T22:28:47.734Z,1.53
2019-05-29T22:31:18.304Z,1.87
2019-05-29T22:33:51.321Z,2.10
2019-05-29T22:36:20.061Z,1.80
2019-05-29T22:38:51.347Z,2.10
2019-05-29T22:41:22.153Z,1.90
2019-05-29T22:43:53.339Z,2.10
2019-05-29T22:46:23.924Z,1.87
2019-05-29T22:48:53.898Z,2.30
2019-05-29T22:51:24.685Z,2.10
2019-05-29T22:53:55.782Z,2.37
2019-05-29T22:56:25.994Z,2.37
2019-05-29T22:58:56.424Z,2.07
2019-05-29T23:01:26.580Z,2.30
2019-05-29T23:03:56.771Z,2.27
2019-05-29T23:06:27.347Z,2.17
2019-05-29T23:08:58.464Z,2.37
2019-05-29T23:11:28.801Z,2.77
2019-05-29T23:14:00.361Z,2.60
2019-05-29T23:16:31.598Z,2.27
2019-05-29T23:19:02.770Z,2.10
2019-05-29T23:21:32.964Z,2.10
2019-05-29T23:24:03.750Z,2.30
2019-05-29T23:26:34.276Z,2.20
2019-05-29T23:29:04.463Z,2.40
2019-05-29T23:31:34.609Z,2.23
2019-05-29T23:34:04.813Z,2.40
2019-05-29T23:36:35.044Z,2.00
2019-05-29T23:39:06.792Z,2.20
2019-05-29T23:41:36.785Z,1.67
2019-05-29T23:44:07.270Z,2.00
2019-05-29T23:46:37.784Z,1.90
2019-05-29T23:49:07.971Z,2.00
2019-05-29T23:51:37.971Z,1.70
2019-05-29T23:54:08.385Z,1.80
2019-05-29T23:56:38.494Z,1.57
2019-05-29T23:59:08.900Z,1.47
